sensor_id;sensor_type;location;lat;lon;timestamp;P1;durP1;ratioP1;P2;durP2;ratioP2
7108;SDS011;29079;41.930;25.558;2022-09-09T00:00:49;6.47;;;3.28;;
7108;SDS011;29079;41.930;25.558;2022-09-09T00:03:26;5.80;;;3.42;;
7108;SDS011;29079;41.930;25.558;2022-09-09T00:05:58;7.65;;;3.75;;
7108;SDS011;29079;41.930;25.558;2022-09-09T00:08:38;3.40;;;2.90;;
7108;SDS011;29079;41.930;25.558;2022-09-09T00:11:16;3.00;;;2.67;;
7108;SDS011;29079;41.930;25.558;2022-09-09T00:13:59;5.95;;;3.30;;
7108;SDS011;29079;41.930;25.558;2022-09-09T00:16:32;4.03;;;3.28;;
7108;SDS011;29079;41.930;25.558;2022-09-09T00:19:10;6.95;;;3.92;;
7108;SDS011;29079;41.930;25.558;2022-09-09T00:21:50;5.20;;;3.33;;
7108;SDS011;29079;41.930;25.558;2022-09-09T00:24:32;5.55;;;3.03;;
7108;SDS011;29079;41.930;25.558;2022-09-09T00:27:09;7.25;;;3.10;;
7108;SDS011;29079;41.930;25.558;2022-09-09T00:29:47;5.20;;;2.70;;
7108;SDS011;29079;41.930;25.558;2022-09-09T00:32:24;6.93;;;2.95;;
7108;SDS011;29079;41.930;25.558;2022-09-09T00:35:00;4.25;;;2.70;;
7108;SDS011;29079;41.930;25.558;2022-09-09T00:37:33;6.55;;;3.30;;
7108;SDS011;29079;41.930;25.558;2022-09-09T00:40:08;4.95;;;3.03;;
7108;SDS011;29079;41.930;25.558;2022-09-09T00:42:53;8.50;;;3.38;;
7108;SDS011;29079;41.930;25.558;2022-09-09T00:45:38;8.32;;;4.05;;
7108;SDS011;29079;41.930;25.558;2022-09-09T00:48:26;4.05;;;3.65;;
7108;SDS011;29079;41.930;25.558;2022-09-09T00:51:05;4.82;;;3.35;;
7108;SDS011;29079;41.930;25.558;2022-09-09T00:53:51;6.70;;;3.63;;
7108;SDS011;29079;41.930;25.558;2022-09-09T00:56:35;8.73;;;3.85;;
7108;SDS011;29079;41.930;25.558;2022-09-09T00:59:13;4.50;;;2.90;;
7108;SDS011;29079;41.930;25.558;2022-09-09T01:01:55;3.95;;;3.45;;
7108;SDS011;29079;41.930;25.558;2022-09-09T01:04:29;8.32;;;3.03;;
7108;SDS011;29079;41.930;25.558;2022-09-09T01:07:07;4.18;;;3.28;;
7108;SDS011;29079;41.930;25.558;2022-09-09T01:09:50;5.38;;;3.30;;
7108;SDS011;29079;41.930;25.558;2022-09-09T01:12:26;4.55;;;3.42;;
7108;SDS011;29079;41.930;25.558;2022-09-09T01:15:03;4.10;;;2.75;;
7108;SDS011;29079;41.930;25.558;2022-09-09T01:17:46;3.85;;;3.13;;
7108;SDS011;29079;41.930;25.558;2022-09-09T01:20:23;8.18;;;3.70;;
7108;SDS011;29079;41.930;25.558;2022-09-09T01:28:39;6.03;;;3.70;;
7108;SDS011;29079;41.930;25.558;2022-09-09T01:31:11;6.43;;;3.60;;
7108;SDS011;29079;41.930;25.558;2022-09-09T01:33:45;5.97;;;3.22;;
7108;SDS011;29079;41.930;25.558;2022-09-09T01:36:17;4.82;;;3.90;;
7108;SDS011;29079;41.930;25.558;2022-09-09T01:38:54;4.80;;;3.30;;
7108;SDS011;29079;41.930;25.558;2022-09-09T01:41:25;6.13;;;3.30;;
7108;SDS011;29079;41.930;25.558;2022-09-09T01:43:56;12.10;;;3.55;;
7108;SDS011;29079;41.930;25.558;2022-09-09T01:46:26;4.10;;;3.50;;
7108;SDS011;29079;41.930;25.558;2022-09-09T01:48:58;6.70;;;3.75;;
7108;SDS011;29079;41.930;25.558;2022-09-09T01:51:30;7.85;;;3.80;;
7108;SDS011;29079;41.930;25.558;2022-09-09T01:54:00;8.50;;;4.07;;
7108;SDS011;29079;41.930;25.558;2022-09-09T01:56:37;6.03;;;4.05;;
7108;SDS011;29079;41.930;25.558;2022-09-09T01:59:24;5.78;;;3.55;;
7108;SDS011;29079;41.930;25.558;2022-09-09T02:02:09;5.72;;;3.70;;
7108;SDS011;29079;41.930;25.558;2022-09-09T02:04:43;6.88;;;3.45;;
7108;SDS011;29079;41.930;25.558;2022-09-09T02:07:21;4.65;;;3.13;;
7108;SDS011;29079;41.930;25.558;2022-09-09T02:10:02;5.18;;;3.42;;
7108;SDS011;29079;41.930;25.558;2022-09-09T02:12:41;7.18;;;3.50;;
7108;SDS011;29079;41.930;25.558;2022-09-09T02:15:17;6.28;;;3.78;;
7108;SDS011;29079;41.930;25.558;2022-09-09T02:17:53;6.28;;;3.40;;
7108;SDS011;29079;41.930;25.558;2022-09-09T02:20:26;4.38;;;3.22;;
7108;SDS011;29079;41.930;25.558;2022-09-09T02:23:02;4.90;;;3.58;;
7108;SDS011;29079;41.930;25.558;2022-09-09T02:25:34;3.92;;;3.40;;
7108;SDS011;29079;41.930;25.558;2022-09-09T02:28:07;4.68;;;3.67;;
7108;SDS011;29079;41.930;25.558;2022-09-09T02:30:38;6.80;;;3.28;;
7108;SDS011;29079;41.930;25.558;2022-09-09T02:33:12;6.82;;;3.35;;
7108;SDS011;29079;41.930;25.558;2022-09-09T02:35:44;4.13;;;3.10;;
7108;SDS011;29079;41.930;25.558;2022-09-09T02:38:16;6.57;;;3.45;;
7108;SDS011;29079;41.930;25.558;2022-09-09T02:40:46;3.50;;;3.17;;
7108;SDS011;29079;41.930;25.558;2022-09-09T02:43:18;5.28;;;3.22;;
7108;SDS011;29079;41.930;25.558;2022-09-09T02:45:49;3.15;;;2.85;;
7108;SDS011;29079;41.930;25.558;2022-09-09T02:48:28;4.25;;;3.50;;
7108;SDS011;29079;41.930;25.558;2022-09-09T02:51:06;4.55;;;3.50;;
7108;SDS011;29079;41.930;25.558;2022-09-09T02:53:43;4.03;;;2.63;;
7108;SDS011;29079;41.930;25.558;2022-09-09T02:56:18;9.20;;;4.13;;
7108;SDS011;29079;41.930;25.558;2022-09-09T02:58:52;8.05;;;3.75;;
7108;SDS011;29079;41.930;25.558;2022-09-09T03:01:22;4.78;;;3.47;;
7108;SDS011;29079;41.930;25.558;2022-09-09T03:03:52;6.80;;;3.58;;
7108;SDS011;29079;41.930;25.558;2022-09-09T03:06:23;4.32;;;3.10;;
7108;SDS011;29079;41.930;25.558;2022-09-09T03:08:53;10.25;;;3.35;;
7108;SDS011;29079;41.930;25.558;2022-09-09T03:11:22;3.35;;;3.05;;
7108;SDS011;29079;41.930;25.558;2022-09-09T03:13:54;3.45;;;2.83;;
7108;SDS011;29079;41.930;25.558;2022-09-09T03:16:24;6.57;;;3.40;;
7108;SDS011;29079;41.930;25.558;2022-09-09T03:18:54;5.35;;;3.22;;
7108;SDS011;29079;41.930;25.558;2022-09-09T03:21:24;6.88;;;4.15;;
7108;SDS011;29079;41.930;25.558;2022-09-09T03:23:54;8.00;;;3.30;;
7108;SDS011;29079;41.930;25.558;2022-09-09T03:26:25;10.80;;;3.55;;
7108;SDS011;29079;41.930;25.558;2022-09-09T03:28:56;7.85;;;3.97;;
7108;SDS011;29079;41.930;25.558;2022-09-09T03:31:28;5.60;;;4.97;;
7108;SDS011;29079;41.930;25.558;2022-09-09T03:33:59;7.90;;;4.30;;
7108;SDS011;29079;41.930;25.558;2022-09-09T03:36:29;6.97;;;4.63;;
7108;SDS011;29079;41.930;25.558;2022-09-09T03:39:00;6.88;;;4.10;;
7108;SDS011;29079;41.930;25.558;2022-09-09T03:41:31;7.53;;;5.13;;
7108;SDS011;29079;41.930;25.558;2022-09-09T03:44:03;11.65;;;5.63;;
7108;SDS011;29079;41.930;25.558;2022-09-09T03:46:33;14.02;;;6.03;;
7108;SDS011;29079;41.930;25.558;2022-09-09T03:49:03;7.28;;;4.82;;
7108;SDS011;29079;41.930;25.558;2022-09-09T03:51:33;7.70;;;4.13;;
7108;SDS011;29079;41.930;25.558;2022-09-09T03:54:05;8.75;;;4.82;;
7108;SDS011;29079;41.930;25.558;2022-09-09T03:56:36;5.75;;;4.60;;
7108;SDS011;29079;41.930;25.558;2022-09-09T03:59:08;7.20;;;5.10;;
7108;SDS011;29079;41.930;25.558;2022-09-09T04:01:38;7.10;;;4.55;;
7108;SDS011;29079;41.930;25.558;2022-09-09T04:04:09;6.90;;;4.88;;
7108;SDS011;29079;41.930;25.558;2022-09-09T04:06:40;10.70;;;5.78;;
7108;SDS011;29079;41.930;25.558;2022-09-09T04:09:10;6.63;;;4.93;;
7108;SDS011;29079;41.930;25.558;2022-09-09T04:11:40;8.90;;;5.20;;
7108;SDS011;29079;41.930;25.558;2022-09-09T04:14:11;9.27;;;4.93;;
7108;SDS011;29079;41.930;25.558;2022-09-09T04:16:42;12.52;;;6.00;;
7108;SDS011;29079;41.930;25.558;2022-09-09T04:19:13;8.90;;;5.35;;
7108;SDS011;29079;41.930;25.558;2022-09-09T04:21:43;11.77;;;5.90;;
7108;SDS011;29079;41.930;25.558;2022-09-09T04:24:13;6.07;;;5.43;;
7108;SDS011;29079;41.930;25.558;2022-09-09T04:26:44;51.22;;;10.45;;
7108;SDS011;29079;41.930;25.558;2022-09-09T04:29:16;11.73;;;5.70;;
7108;SDS011;29079;41.930;25.558;2022-09-09T04:31:46;9.02;;;5.93;;
7108;SDS011;29079;41.930;25.558;2022-09-09T04:34:16;8.07;;;5.05;;
7108;SDS011;29079;41.930;25.558;2022-09-09T04:36:46;15.23;;;5.82;;
7108;SDS011;29079;41.930;25.558;2022-09-09T04:39:16;9.15;;;5.70;;
7108;SDS011;29079;41.930;25.558;2022-09-09T04:41:46;10.00;;;5.28;;
7108;SDS011;29079;41.930;25.558;2022-09-09T04:44:17;11.43;;;6.00;;
7108;SDS011;29079;41.930;25.558;2022-09-09T04:46:47;9.70;;;5.63;;
7108;SDS011;29079;41.930;25.558;2022-09-09T04:49:17;15.10;;;6.50;;
7108;SDS011;29079;41.930;25.558;2022-09-09T04:51:48;16.23;;;6.25;;
7108;SDS011;29079;41.930;25.558;2022-09-09T04:54:18;11.90;;;5.88;;
7108;SDS011;29079;41.930;25.558;2022-09-09T04:56:49;16.33;;;6.70;;
7108;SDS011;29079;41.930;25.558;2022-09-09T04:59:21;14.88;;;5.65;;
7108;SDS011;29079;41.930;25.558;2022-09-09T05:01:51;38.92;;;26.48;;
7108;SDS011;29079;41.930;25.558;2022-09-09T05:04:23;23.25;;;11.57;;
7108;SDS011;29079;41.930;25.558;2022-09-09T05:06:53;14.30;;;7.80;;
7108;SDS011;29079;41.930;25.558;2022-09-09T05:09:23;17.20;;;8.75;;
7108;SDS011;29079;41.930;25.558;2022-09-09T05:11:53;15.02;;;9.35;;
7108;SDS011;29079;41.930;25.558;2022-09-09T05:14:25;15.48;;;7.82;;
7108;SDS011;29079;41.930;25.558;2022-09-09T05:16:56;12.00;;;7.22;;
7108;SDS011;29079;41.930;25.558;2022-09-09T05:19:26;13.68;;;7.78;;
7108;SDS011;29079;41.930;25.558;2022-09-09T05:21:58;11.57;;;7.28;;
7108;SDS011;29079;41.930;25.558;2022-09-09T05:24:29;15.57;;;7.70;;
7108;SDS011;29079;41.930;25.558;2022-09-09T05:27:01;16.55;;;9.50;;
7108;SDS011;29079;41.930;25.558;2022-09-09T05:29:35;11.90;;;8.40;;
7108;SDS011;29079;41.930;25.558;2022-09-09T05:32:08;80.45;;;10.07;;
7108;SDS011;29079;41.930;25.558;2022-09-09T05:34:43;61.28;;;8.23;;
7108;SDS011;29079;41.930;25.558;2022-09-09T05:37:13;119.13;;;16.98;;
7108;SDS011;29079;41.930;25.558;2022-09-09T05:39:43;80.38;;;11.45;;
7108;SDS011;29079;41.930;25.558;2022-09-09T05:42:13;52.70;;;8.05;;
7108;SDS011;29079;41.930;25.558;2022-09-09T05:44:44;21.20;;;6.05;;
7108;SDS011;29079;41.930;25.558;2022-09-09T05:47:14;13.50;;;4.75;;
7108;SDS011;29079;41.930;25.558;2022-09-09T05:49:45;11.95;;;5.28;;
7108;SDS011;29079;41.930;25.558;2022-09-09T05:52:15;7.03;;;4.38;;
7108;SDS011;29079;41.930;25.558;2022-09-09T05:54:45;13.55;;;5.03;;
7108;SDS011;29079;41.930;25.558;2022-09-09T05:57:15;9.07;;;4.28;;
7108;SDS011;29079;41.930;25.558;2022-09-09T05:59:46;15.73;;;5.40;;
7108;SDS011;29079;41.930;25.558;2022-09-09T06:02:16;9.65;;;4.72;;
7108;SDS011;29079;41.930;25.558;2022-09-09T06:04:47;12.15;;;5.75;;
7108;SDS011;29079;41.930;25.558;2022-09-09T06:07:16;13.10;;;4.50;;
7108;SDS011;29079;41.930;25.558;2022-09-09T06:09:46;5.80;;;4.57;;
7108;SDS011;29079;41.930;25.558;2022-09-09T06:12:16;9.32;;;4.60;;
7108;SDS011;29079;41.930;25.558;2022-09-09T06:14:47;5.50;;;4.80;;
7108;SDS011;29079;41.930;25.558;2022-09-09T06:17:19;5.65;;;4.28;;
7108;SDS011;29079;41.930;25.558;2022-09-09T06:19:49;7.95;;;4.88;;
7108;SDS011;29079;41.930;25.558;2022-09-09T06:22:20;6.47;;;5.05;;
7108;SDS011;29079;41.930;25.558;2022-09-09T06:24:49;6.50;;;4.28;;
7108;SDS011;29079;41.930;25.558;2022-09-09T06:27:20;7.28;;;5.10;;
7108;SDS011;29079;41.930;25.558;2022-09-09T06:29:51;7.35;;;4.78;;
7108;SDS011;29079;41.930;25.558;2022-09-09T06:32:21;6.43;;;4.95;;
7108;SDS011;29079;41.930;25.558;2022-09-09T06:34:51;5.68;;;4.75;;
7108;SDS011;29079;41.930;25.558;2022-09-09T06:37:21;10.85;;;5.50;;
7108;SDS011;29079;41.930;25.558;2022-09-09T06:39:52;10.40;;;5.38;;
7108;SDS011;29079;41.930;25.558;2022-09-09T06:42:22;6.40;;;4.15;;
7108;SDS011;29079;41.930;25.558;2022-09-09T06:44:54;9.57;;;5.05;;
7108;SDS011;29079;41.930;25.558;2022-09-09T06:47:24;9.60;;;6.10;;
7108;SDS011;29079;41.930;25.558;2022-09-09T06:49:55;20.48;;;7.65;;
7108;SDS011;29079;41.930;25.558;2022-09-09T06:52:25;11.50;;;5.57;;
7108;SDS011;29079;41.930;25.558;2022-09-09T06:54:55;10.43;;;5.13;;
7108;SDS011;29079;41.930;25.558;2022-09-09T06:57:26;8.00;;;5.00;;
7108;SDS011;29079;41.930;25.558;2022-09-09T07:00:07;6.82;;;5.07;;
7108;SDS011;29079;41.930;25.558;2022-09-09T07:02:38;7.38;;;5.43;;
7108;SDS011;29079;41.930;25.558;2022-09-09T07:05:09;7.78;;;4.68;;
7108;SDS011;29079;41.930;25.558;2022-09-09T07:07:39;7.13;;;5.78;;
7108;SDS011;29079;41.930;25.558;2022-09-09T07:10:09;13.60;;;5.97;;
7108;SDS011;29079;41.930;25.558;2022-09-09T07:12:39;5.63;;;5.10;;
7108;SDS011;29079;41.930;25.558;2022-09-09T07:15:10;5.75;;;4.90;;
7108;SDS011;29079;41.930;25.558;2022-09-09T07:17:41;6.05;;;4.88;;
7108;SDS011;29079;41.930;25.558;2022-09-09T07:20:11;10.07;;;6.00;;
7108;SDS011;29079;41.930;25.558;2022-09-09T07:22:43;8.50;;;5.60;;
7108;SDS011;29079;41.930;25.558;2022-09-09T07:25:13;8.35;;;5.05;;
7108;SDS011;29079;41.930;25.558;2022-09-09T07:27:45;8.45;;;4.47;;
7108;SDS011;29079;41.930;25.558;2022-09-09T07:30:16;14.93;;;5.95;;
7108;SDS011;29079;41.930;25.558;2022-09-09T07:32:54;10.85;;;5.70;;
7108;SDS011;29079;41.930;25.558;2022-09-09T07:35:25;5.70;;;4.95;;
7108;SDS011;29079;41.930;25.558;2022-09-09T07:37:56;8.43;;;4.93;;
7108;SDS011;29079;41.930;25.558;2022-09-09T07:40:27;6.60;;;3.78;;
7108;SDS011;29079;41.930;25.558;2022-09-09T07:42:57;5.20;;;4.00;;
7108;SDS011;29079;41.930;25.558;2022-09-09T07:45:30;5.97;;;5.18;;
7108;SDS011;29079;41.930;25.558;2022-09-09T07:48:01;7.63;;;5.15;;
7108;SDS011;29079;41.930;25.558;2022-09-09T07:50:31;11.27;;;5.05;;
7108;SDS011;29079;41.930;25.558;2022-09-09T07:53:01;5.32;;;4.82;;
7108;SDS011;29079;41.930;25.558;2022-09-09T07:55:33;9.07;;;5.78;;
7108;SDS011;29079;41.930;25.558;2022-09-09T07:58:03;6.38;;;5.22;;
7108;SDS011;29079;41.930;25.558;2022-09-09T08:00:34;9.15;;;5.72;;
7108;SDS011;29079;41.930;25.558;2022-09-09T08:03:04;6.00;;;5.40;;
7108;SDS011;29079;41.930;25.558;2022-09-09T08:05:35;12.15;;;5.93;;
7108;SDS011;29079;41.930;25.558;2022-09-09T08:08:05;6.50;;;5.55;;
7108;SDS011;29079;41.930;25.558;2022-09-09T08:10:34;8.57;;;5.47;;
7108;SDS011;29079;41.930;25.558;2022-09-09T08:13:05;7.43;;;6.65;;
7108;SDS011;29079;41.930;25.558;2022-09-09T08:15:47;11.23;;;6.22;;
7108;SDS011;29079;41.930;25.558;2022-09-09T08:18:18;6.70;;;6.00;;
7108;SDS011;29079;41.930;25.558;2022-09-09T08:20:48;16.25;;;6.70;;
7108;SDS011;29079;41.930;25.558;2022-09-09T08:23:18;8.30;;;6.40;;
7108;SDS011;29079;41.930;25.558;2022-09-09T08:25:49;8.30;;;7.45;;
7108;SDS011;29079;41.930;25.558;2022-09-09T08:28:19;11.98;;;7.93;;
7108;SDS011;29079;41.930;25.558;2022-09-09T08:30:50;11.02;;;8.63;;
7108;SDS011;29079;41.930;25.558;2022-09-09T08:33:21;9.93;;;7.93;;
7108;SDS011;29079;41.930;25.558;2022-09-09T08:35:51;11.30;;;8.88;;
7108;SDS011;29079;41.930;25.558;2022-09-09T08:38:21;9.15;;;7.72;;
7108;SDS011;29079;41.930;25.558;2022-09-09T08:40:51;11.10;;;8.25;;
7108;SDS011;29079;41.930;25.558;2022-09-09T08:43:29;11.93;;;8.40;;
7108;SDS011;29079;41.930;25.558;2022-09-09T08:46:02;11.98;;;7.97;;
7108;SDS011;29079;41.930;25.558;2022-09-09T08:48:43;10.32;;;8.10;;
7108;SDS011;29079;41.930;25.558;2022-09-09T08:51:21;11.98;;;8.00;;
7108;SDS011;29079;41.930;25.558;2022-09-09T08:53:53;10.48;;;7.00;;
7108;SDS011;29079;41.930;25.558;2022-09-09T08:56:28;11.90;;;8.63;;
7108;SDS011;29079;41.930;25.558;2022-09-09T08:59:02;12.32;;;6.95;;
7108;SDS011;29079;41.930;25.558;2022-09-09T09:01:53;10.32;;;7.70;;
7108;SDS011;29079;41.930;25.558;2022-09-09T09:04:38;15.35;;;6.78;;
7108;SDS011;29079;41.930;25.558;2022-09-09T09:07:20;11.68;;;7.28;;
7108;SDS011;29079;41.930;25.558;2022-09-09T09:10:03;7.35;;;6.53;;
7108;SDS011;29079;41.930;25.558;2022-09-09T09:12:58;14.88;;;7.63;;
7108;SDS011;29079;41.930;25.558;2022-09-09T09:15:31;13.77;;;6.38;;
7108;SDS011;29079;41.930;25.558;2022-09-09T09:18:07;9.50;;;6.18;;
7108;SDS011;29079;41.930;25.558;2022-09-09T09:20:42;10.70;;;6.47;;
7108;SDS011;29079;41.930;25.558;2022-09-09T09:23:21;6.95;;;6.20;;
7108;SDS011;29079;41.930;25.558;2022-09-09T09:25:54;11.98;;;6.45;;
7108;SDS011;29079;41.930;25.558;2022-09-09T09:28:29;6.43;;;5.68;;
7108;SDS011;29079;41.930;25.558;2022-09-09T09:31:03;6.90;;;6.20;;
7108;SDS011;29079;41.930;25.558;2022-09-09T09:33:37;9.73;;;5.63;;
7108;SDS011;29079;41.930;25.558;2022-09-09T09:36:15;8.63;;;5.00;;
7108;SDS011;29079;41.930;25.558;2022-09-09T09:38:51;14.77;;;5.03;;
7108;SDS011;29079;41.930;25.558;2022-09-09T09:41:43;6.88;;;4.60;;
7108;SDS011;29079;41.930;25.558;2022-09-09T09:44:22;9.55;;;6.90;;
7108;SDS011;29079;41.930;25.558;2022-09-09T09:47:05;8.18;;;4.43;;
7108;SDS011;29079;41.930;25.558;2022-09-09T09:49:38;4.35;;;4.03;;
7108;SDS011;29079;41.930;25.558;2022-09-09T09:52:12;8.90;;;4.50;;
7108;SDS011;29079;41.930;25.558;2022-09-09T09:54:46;5.38;;;3.97;;
7108;SDS011;29079;41.930;25.558;2022-09-09T09:57:16;4.63;;;4.22;;
7108;SDS011;29079;41.930;25.558;2022-09-09T09:59:47;6.45;;;3.95;;
7108;SDS011;29079;41.930;25.558;2022-09-09T10:02:19;5.00;;;4.13;;
7108;SDS011;29079;41.930;25.558;2022-09-09T10:05:01;4.82;;;4.18;;
7108;SDS011;29079;41.930;25.558;2022-09-09T10:07:33;6.38;;;4.40;;
7108;SDS011;29079;41.930;25.558;2022-09-09T10:10:08;4.50;;;4.10;;
7108;SDS011;29079;41.930;25.558;2022-09-09T10:12:45;6.20;;;4.75;;
7108;SDS011;29079;41.930;25.558;2022-09-09T10:15:34;7.65;;;3.75;;
7108;SDS011;29079;41.930;25.558;2022-09-09T10:18:35;11.75;;;4.38;;
7108;SDS011;29079;41.930;25.558;2022-09-09T10:21:19;6.65;;;4.35;;
7108;SDS011;29079;41.930;25.558;2022-09-09T10:24:04;4.22;;;3.65;;
7108;SDS011;29079;41.930;25.558;2022-09-09T10:26:47;4.97;;;3.35;;
7108;SDS011;29079;41.930;25.558;2022-09-09T10:32:30;10.67;;;3.80;;
7108;SDS011;29079;41.930;25.558;2022-09-09T10:35:10;9.82;;;4.20;;
7108;SDS011;29079;41.930;25.558;2022-09-09T10:37:50;4.45;;;4.00;;
7108;SDS011;29079;41.930;25.558;2022-09-09T10:40:33;4.03;;;3.65;;
7108;SDS011;29079;41.930;25.558;2022-09-09T10:43:11;5.53;;;4.50;;
7108;SDS011;29079;41.930;25.558;2022-09-09T10:45:49;5.65;;;4.70;;
7108;SDS011;29079;41.930;25.558;2022-09-09T10:48:34;6.20;;;4.20;;
7108;SDS011;29079;41.930;25.558;2022-09-09T10:51:23;5.13;;;3.95;;
7108;SDS011;29079;41.930;25.558;2022-09-09T10:54:08;4.10;;;3.63;;
7108;SDS011;29079;41.930;25.558;2022-09-09T10:56:49;5.80;;;4.72;;
7108;SDS011;29079;41.930;25.558;2022-09-09T10:59:26;4.65;;;3.80;;
7108;SDS011;29079;41.930;25.558;2022-09-09T11:02:00;6.35;;;3.75;;
7108;SDS011;29079;41.930;25.558;2022-09-09T11:04:38;9.02;;;4.85;;
7108;SDS011;29079;41.930;25.558;2022-09-09T11:07:13;5.15;;;4.65;;
7108;SDS011;29079;41.930;25.558;2022-09-09T11:09:54;5.50;;;4.60;;
7108;SDS011;29079;41.930;25.558;2022-09-09T11:12:29;4.63;;;4.07;;
7108;SDS011;29079;41.930;25.558;2022-09-09T11:15:04;6.20;;;4.95;;
7108;SDS011;29079;41.930;25.558;2022-09-09T11:17:39;7.22;;;5.13;;
7108;SDS011;29079;41.930;25.558;2022-09-09T11:20:12;6.30;;;4.75;;
7108;SDS011;29079;41.930;25.558;2022-09-09T11:22:45;5.75;;;5.00;;
7108;SDS011;29079;41.930;25.558;2022-09-09T11:25:20;5.60;;;5.10;;
7108;SDS011;29079;41.930;25.558;2022-09-09T11:27:59;5.90;;;4.20;;
7108;SDS011;29079;41.930;25.558;2022-09-09T11:30:46;8.30;;;7.05;;
7108;SDS011;29079;41.930;25.558;2022-09-09T11:33:34;9.35;;;5.45;;
7108;SDS011;29079;41.930;25.558;2022-09-09T11:36:28;6.95;;;4.75;;
7108;SDS011;29079;41.930;25.558;2022-09-09T11:39:15;5.35;;;4.60;;
7108;SDS011;29079;41.930;25.558;2022-09-09T11:42:06;8.75;;;5.82;;
7108;SDS011;29079;41.930;25.558;2022-09-09T11:44:44;6.53;;;4.43;;
7108;SDS011;29079;41.930;25.558;2022-09-09T11:47:19;8.23;;;5.05;;
7108;SDS011;29079;41.930;25.558;2022-09-09T11:49:52;8.25;;;5.05;;
7108;SDS011;29079;41.930;25.558;2022-09-09T11:52:23;4.95;;;4.47;;
7108;SDS011;29079;41.930;25.558;2022-09-09T11:54:55;11.80;;;5.78;;
7108;SDS011;29079;41.930;25.558;2022-09-09T11:57:29;7.88;;;7.15;;
7108;SDS011;29079;41.930;25.558;2022-09-09T12:00:04;5.85;;;5.32;;
7108;SDS011;29079;41.930;25.558;2022-09-09T12:02:35;9.52;;;6.03;;
7108;SDS011;29079;41.930;25.558;2022-09-09T12:05:05;8.57;;;5.43;;
7108;SDS011;29079;41.930;25.558;2022-09-09T12:07:40;10.40;;;7.60;;
7108;SDS011;29079;41.930;25.558;2022-09-09T12:10:22;12.15;;;9.82;;
7108;SDS011;29079;41.930;25.558;2022-09-09T12:13:07;11.77;;;7.70;;
7108;SDS011;29079;41.930;25.558;2022-09-09T12:15:46;8.48;;;5.47;;
7108;SDS011;29079;41.930;25.558;2022-09-09T12:18:21;5.60;;;4.70;;
7108;SDS011;29079;41.930;25.558;2022-09-09T12:20:55;7.78;;;7.03;;
7108;SDS011;29079;41.930;25.558;2022-09-09T12:23:33;10.25;;;8.82;;
7108;SDS011;29079;41.930;25.558;2022-09-09T12:26:23;14.40;;;5.85;;
7108;SDS011;29079;41.930;25.558;2022-09-09T12:29:11;8.82;;;5.95;;
7108;SDS011;29079;41.930;25.558;2022-09-09T12:31:51;9.38;;;6.20;;
7108;SDS011;29079;41.930;25.558;2022-09-09T12:34:30;6.90;;;5.32;;
7108;SDS011;29079;41.930;25.558;2022-09-09T12:37:06;5.07;;;4.57;;
7108;SDS011;29079;41.930;25.558;2022-09-09T12:39:49;5.43;;;4.35;;
7108;SDS011;29079;41.930;25.558;2022-09-09T12:42:23;7.72;;;4.65;;
7108;SDS011;29079;41.930;25.558;2022-09-09T12:44:55;11.70;;;5.32;;
7108;SDS011;29079;41.930;25.558;2022-09-09T12:47:29;6.07;;;5.53;;
7108;SDS011;29079;41.930;25.558;2022-09-09T12:50:14;6.13;;;4.78;;
7108;SDS011;29079;41.930;25.558;2022-09-09T12:52:45;4.32;;;3.97;;
7108;SDS011;29079;41.930;25.558;2022-09-09T12:55:18;19.80;;;4.97;;
7108;SDS011;29079;41.930;25.558;2022-09-09T12:57:53;8.32;;;4.97;;
7108;SDS011;29079;41.930;25.558;2022-09-09T13:00:25;5.45;;;3.95;;
7108;SDS011;29079;41.930;25.558;2022-09-09T13:02:56;7.07;;;4.43;;
7108;SDS011;29079;41.930;25.558;2022-09-09T13:05:34;6.03;;;4.53;;
7108;SDS011;29079;41.930;25.558;2022-09-09T13:08:06;12.35;;;10.27;;
7108;SDS011;29079;41.930;25.558;2022-09-09T13:10:39;16.03;;;11.50;;
7108;SDS011;29079;41.930;25.558;2022-09-09T13:13:23;10.75;;;7.40;;
7108;SDS011;29079;41.930;25.558;2022-09-09T13:16:01;10.18;;;4.70;;
7108;SDS011;29079;41.930;25.558;2022-09-09T13:18:36;8.68;;;6.60;;
7108;SDS011;29079;41.930;25.558;2022-09-09T13:21:10;7.88;;;5.15;;
7108;SDS011;29079;41.930;25.558;2022-09-09T13:23:40;10.18;;;5.63;;
7108;SDS011;29079;41.930;25.558;2022-09-09T13:26:20;9.48;;;4.72;;
7108;SDS011;29079;41.930;25.558;2022-09-09T13:28:51;13.27;;;4.50;;
7108;SDS011;29079;41.930;25.558;2022-09-09T13:31:28;6.30;;;3.97;;
7108;SDS011;29079;41.930;25.558;2022-09-09T13:33:59;6.90;;;4.72;;
7108;SDS011;29079;41.930;25.558;2022-09-09T13:36:41;8.43;;;5.75;;
7108;SDS011;29079;41.930;25.558;2022-09-09T13:39:17;7.60;;;5.68;;
7108;SDS011;29079;41.930;25.558;2022-09-09T13:41:47;8.38;;;5.07;;
7108;SDS011;29079;41.930;25.558;2022-09-09T13:44:19;8.23;;;5.38;;
7108;SDS011;29079;41.930;25.558;2022-09-09T13:47:03;6.70;;;4.28;;
7108;SDS011;29079;41.930;25.558;2022-09-09T13:49:38;7.63;;;4.75;;
7108;SDS011;29079;41.930;25.558;2022-09-09T13:52:10;7.90;;;5.10;;
7108;SDS011;29079;41.930;25.558;2022-09-09T13:54:42;9.25;;;4.28;;
7108;SDS011;29079;41.930;25.558;2022-09-09T13:57:17;7.90;;;5.55;;
7108;SDS011;29079;41.930;25.558;2022-09-09T13:59:48;6.28;;;4.43;;
7108;SDS011;29079;41.930;25.558;2022-09-09T14:02:34;4.68;;;3.90;;
7108;SDS011;29079;41.930;25.558;2022-09-09T14:05:04;7.38;;;4.38;;
7108;SDS011;29079;41.930;25.558;2022-09-09T14:07:34;11.10;;;5.07;;
7108;SDS011;29079;41.930;25.558;2022-09-09T14:10:04;5.22;;;4.25;;
7108;SDS011;29079;41.930;25.558;2022-09-09T14:12:36;12.82;;;4.63;;
7108;SDS011;29079;41.930;25.558;2022-09-09T14:15:07;7.38;;;4.13;;
7108;SDS011;29079;41.930;25.558;2022-09-09T14:17:41;6.55;;;3.50;;
7108;SDS011;29079;41.930;25.558;2022-09-09T14:20:11;7.25;;;4.30;;
7108;SDS011;29079;41.930;25.558;2022-09-09T14:22:43;5.53;;;4.68;;
7108;SDS011;29079;41.930;25.558;2022-09-09T14:25:13;5.85;;;4.25;;
7108;SDS011;29079;41.930;25.558;2022-09-09T14:27:43;7.78;;;5.13;;
7108;SDS011;29079;41.930;25.558;2022-09-09T14:30:14;9.55;;;4.32;;
7108;SDS011;29079;41.930;25.558;2022-09-09T14:32:45;7.32;;;5.28;;
7108;SDS011;29079;41.930;25.558;2022-09-09T14:35:15;7.10;;;5.03;;
7108;SDS011;29079;41.930;25.558;2022-09-09T14:37:46;8.85;;;5.50;;
7108;SDS011;29079;41.930;25.558;2022-09-09T14:40:16;6.00;;;4.68;;
7108;SDS011;29079;41.930;25.558;2022-09-09T14:42:46;9.82;;;5.70;;
7108;SDS011;29079;41.930;25.558;2022-09-09T14:45:17;10.70;;;4.93;;
7108;SDS011;29079;41.930;25.558;2022-09-09T14:47:49;7.05;;;4.35;;
7108;SDS011;29079;41.930;25.558;2022-09-09T14:50:19;7.60;;;5.20;;
7108;SDS011;29079;41.930;25.558;2022-09-09T14:52:49;6.13;;;4.93;;
7108;SDS011;29079;41.930;25.558;2022-09-09T14:55:19;8.25;;;4.45;;
7108;SDS011;29079;41.930;25.558;2022-09-09T14:57:49;9.07;;;4.32;;
7108;SDS011;29079;41.930;25.558;2022-09-09T15:00:19;9.52;;;4.93;;
7108;SDS011;29079;41.930;25.558;2022-09-09T15:02:52;6.05;;;5.45;;
7108;SDS011;29079;41.930;25.558;2022-09-09T15:05:23;6.40;;;5.13;;
7108;SDS011;29079;41.930;25.558;2022-09-09T15:07:53;6.32;;;4.75;;
7108;SDS011;29079;41.930;25.558;2022-09-09T15:10:23;7.18;;;4.70;;
7108;SDS011;29079;41.930;25.558;2022-09-09T15:12:55;10.40;;;4.72;;
7108;SDS011;29079;41.930;25.558;2022-09-09T15:15:26;5.85;;;4.50;;
7108;SDS011;29079;41.930;25.558;2022-09-09T15:17:57;5.80;;;4.63;;
7108;SDS011;29079;41.930;25.558;2022-09-09T15:20:27;7.32;;;4.53;;
7108;SDS011;29079;41.930;25.558;2022-09-09T15:22:57;7.00;;;5.10;;
7108;SDS011;29079;41.930;25.558;2022-09-09T15:25:27;8.45;;;4.32;;
7108;SDS011;29079;41.930;25.558;2022-09-09T15:27:57;6.07;;;4.00;;
7108;SDS011;29079;41.930;25.558;2022-09-09T15:30:27;5.03;;;4.53;;
7108;SDS011;29079;41.930;25.558;2022-09-09T15:32:59;10.57;;;4.68;;